sensor_id;sensor_type;location;lat;lon;timestamp;P1;durP1;ratioP1;P2;durP2;ratioP2
43670;SDS011;29267;50.906;7.248;2023-02-15T00:00:08;43.83;;;18.55;;
43670;SDS011;29267;50.906;7.248;2023-02-15T00:02:37;44.50;;;18.70;;
43670;SDS011;29267;50.906;7.248;2023-02-15T00:05:03;44.13;;;18.08;;
43670;SDS011;29267;50.906;7.248;2023-02-15T00:07:29;44.42;;;17.85;;
43670;SDS011;29267;50.906;7.248;2023-02-15T00:09:55;36.72;;;18.15;;
43670;SDS011;29267;50.906;7.248;2023-02-15T00:12:20;44.17;;;19.05;;
43670;SDS011;29267;50.906;7.248;2023-02-15T00:14:47;44.45;;;19.85;;
43670;SDS011;29267;50.906;7.248;2023-02-15T00:17:12;43.03;;;18.55;;
43670;SDS011;29267;50.906;7.248;2023-02-15T00:19:38;39.03;;;18.25;;
43670;SDS011;29267;50.906;7.248;2023-02-15T00:22:05;40.03;;;18.67;;
43670;SDS011;29267;50.906;7.248;2023-02-15T00:24:31;41.42;;;19.63;;
43670;SDS011;29267;50.906;7.248;2023-02-15T00:26:57;40.20;;;17.98;;
43670;SDS011;29267;50.906;7.248;2023-02-15T00:29:23;37.78;;;18.02;;
43670;SDS011;29267;50.906;7.248;2023-02-15T00:31:49;49.55;;;20.27;;
43670;SDS011;29267;50.906;7.248;2023-02-15T00:36:42;49.05;;;18.45;;
43670;SDS011;29267;50.906;7.248;2023-02-15T00:39:08;39.45;;;18.20;;
43670;SDS011;29267;50.906;7.248;2023-02-15T00:41:34;42.85;;;17.63;;
43670;SDS011;29267;50.906;7.248;2023-02-15T00:43:59;48.03;;;20.02;;
43670;SDS011;29267;50.906;7.248;2023-02-15T00:46:25;40.45;;;19.05;;
43670;SDS011;29267;50.906;7.248;2023-02-15T00:48:51;41.20;;;17.77;;
43670;SDS011;29267;50.906;7.248;2023-02-15T00:51:16;42.28;;;18.67;;
43670;SDS011;29267;50.906;7.248;2023-02-15T00:53:43;46.10;;;19.10;;
43670;SDS011;29267;50.906;7.248;2023-02-15T00:56:10;42.60;;;18.95;;
43670;SDS011;29267;50.906;7.248;2023-02-15T00:58:35;44.80;;;19.05;;
43670;SDS011;29267;50.906;7.248;2023-02-15T01:01:09;41.28;;;18.85;;
43670;SDS011;29267;50.906;7.248;2023-02-15T01:03:37;47.40;;;18.30;;
43670;SDS011;29267;50.906;7.248;2023-02-15T01:06:02;47.33;;;19.85;;
43670;SDS011;29267;50.906;7.248;2023-02-15T01:08:29;40.33;;;18.33;;
43670;SDS011;29267;50.906;7.248;2023-02-15T01:10:55;46.30;;;19.00;;
43670;SDS011;29267;50.906;7.248;2023-02-15T01:13:21;42.67;;;18.20;;
43670;SDS011;29267;50.906;7.248;2023-02-15T01:15:52;47.58;;;17.58;;
43670;SDS011;29267;50.906;7.248;2023-02-15T01:18:19;41.67;;;18.25;;
43670;SDS011;29267;50.906;7.248;2023-02-15T01:20:45;43.28;;;18.90;;
43670;SDS011;29267;50.906;7.248;2023-02-15T01:23:12;44.60;;;18.85;;
43670;SDS011;29267;50.906;7.248;2023-02-15T01:25:38;41.17;;;19.17;;
43670;SDS011;29267;50.906;7.248;2023-02-15T01:28:04;49.70;;;20.38;;
43670;SDS011;29267;50.906;7.248;2023-02-15T01:30:30;45.75;;;19.90;;
43670;SDS011;29267;50.906;7.248;2023-02-15T01:32:56;44.70;;;20.13;;
43670;SDS011;29267;50.906;7.248;2023-02-15T01:35:22;43.45;;;18.95;;
43670;SDS011;29267;50.906;7.248;2023-02-15T01:37:48;47.08;;;19.75;;
43670;SDS011;29267;50.906;7.248;2023-02-15T01:40:14;41.45;;;18.60;;
43670;SDS011;29267;50.906;7.248;2023-02-15T01:42:41;46.95;;;19.48;;
43670;SDS011;29267;50.906;7.248;2023-02-15T01:45:16;39.78;;;18.45;;
43670;SDS011;29267;50.906;7.248;2023-02-15T01:48:02;42.53;;;19.00;;
43670;SDS011;29267;50.906;7.248;2023-02-15T01:50:38;49.00;;;18.38;;
43670;SDS011;29267;50.906;7.248;2023-02-15T01:53:10;45.67;;;19.33;;
43670;SDS011;29267;50.906;7.248;2023-02-15T01:56:02;46.60;;;19.20;;
43670;SDS011;29267;50.906;7.248;2023-02-15T01:58:38;44.10;;;19.20;;
43670;SDS011;29267;50.906;7.248;2023-02-15T02:01:04;42.75;;;19.98;;
43670;SDS011;29267;50.906;7.248;2023-02-15T02:06:10;41.15;;;18.45;;
43670;SDS011;29267;50.906;7.248;2023-02-15T02:08:35;41.88;;;17.88;;
43670;SDS011;29267;50.906;7.248;2023-02-15T02:11:01;43.47;;;19.50;;
43670;SDS011;29267;50.906;7.248;2023-02-15T02:13:27;39.53;;;17.83;;
43670;SDS011;29267;50.906;7.248;2023-02-15T02:15:58;46.17;;;19.90;;
43670;SDS011;29267;50.906;7.248;2023-02-15T02:24:17;36.20;;;16.45;;
43670;SDS011;29267;50.906;7.248;2023-02-15T02:27:17;41.58;;;16.83;;
43670;SDS011;29267;50.906;7.248;2023-02-15T02:35:13;44.38;;;19.40;;
43670;SDS011;29267;50.906;7.248;2023-02-15T02:38:00;41.92;;;17.95;;
43670;SDS011;29267;50.906;7.248;2023-02-15T02:40:43;44.08;;;18.40;;
43670;SDS011;29267;50.906;7.248;2023-02-15T02:43:18;39.45;;;18.67;;
43670;SDS011;29267;50.906;7.248;2023-02-15T02:45:55;43.83;;;18.50;;
43670;SDS011;29267;50.906;7.248;2023-02-15T02:48:26;43.22;;;19.58;;
43670;SDS011;29267;50.906;7.248;2023-02-15T02:50:56;43.92;;;18.45;;
43670;SDS011;29267;50.906;7.248;2023-02-15T02:53:21;47.97;;;18.98;;
43670;SDS011;29267;50.906;7.248;2023-02-15T02:55:49;49.25;;;19.35;;
43670;SDS011;29267;50.906;7.248;2023-02-15T02:58:24;47.25;;;18.45;;
43670;SDS011;29267;50.906;7.248;2023-02-15T03:00:57;50.95;;;19.05;;
43670;SDS011;29267;50.906;7.248;2023-02-15T03:03:47;47.45;;;19.65;;
43670;SDS011;29267;50.906;7.248;2023-02-15T03:07:00;48.25;;;19.52;;
43670;SDS011;29267;50.906;7.248;2023-02-15T03:11:59;45.35;;;20.02;;
43670;SDS011;29267;50.906;7.248;2023-02-15T03:14:26;45.28;;;18.88;;
43670;SDS011;29267;50.906;7.248;2023-02-15T03:16:52;36.88;;;17.55;;
43670;SDS011;29267;50.906;7.248;2023-02-15T03:19:27;45.45;;;19.75;;
43670;SDS011;29267;50.906;7.248;2023-02-15T03:21:56;35.53;;;17.10;;
43670;SDS011;29267;50.906;7.248;2023-02-15T03:25:19;43.15;;;18.30;;
43670;SDS011;29267;50.906;7.248;2023-02-15T03:27:31;45.28;;;19.48;;
43670;SDS011;29267;50.906;7.248;2023-02-15T03:30:10;45.17;;;19.10;;
43670;SDS011;29267;50.906;7.248;2023-02-15T03:32:38;43.58;;;19.48;;
43670;SDS011;29267;50.906;7.248;2023-02-15T03:35:06;47.28;;;19.88;;
43670;SDS011;29267;50.906;7.248;2023-02-15T03:37:33;47.25;;;18.63;;
43670;SDS011;29267;50.906;7.248;2023-02-15T03:40:19;42.78;;;18.00;;
43670;SDS011;29267;50.906;7.248;2023-02-15T03:43:27;45.92;;;18.75;;
43670;SDS011;29267;50.906;7.248;2023-02-15T03:46:00;47.33;;;18.17;;
43670;SDS011;29267;50.906;7.248;2023-02-15T03:48:38;47.10;;;18.58;;
43670;SDS011;29267;50.906;7.248;2023-02-15T03:54:08;41.60;;;18.55;;
43670;SDS011;29267;50.906;7.248;2023-02-15T03:57:00;37.45;;;17.25;;
43670;SDS011;29267;50.906;7.248;2023-02-15T03:59:56;46.70;;;17.35;;
43670;SDS011;29267;50.906;7.248;2023-02-15T04:05:53;39.22;;;18.13;;
43670;SDS011;29267;50.906;7.248;2023-02-15T04:08:19;39.75;;;18.67;;
43670;SDS011;29267;50.906;7.248;2023-02-15T04:10:45;45.58;;;18.50;;
43670;SDS011;29267;50.906;7.248;2023-02-15T04:13:17;45.42;;;16.55;;
43670;SDS011;29267;50.906;7.248;2023-02-15T04:15:55;41.83;;;17.73;;
43670;SDS011;29267;50.906;7.248;2023-02-15T04:18:34;45.45;;;18.25;;
43670;SDS011;29267;50.906;7.248;2023-02-15T04:21:21;42.08;;;16.88;;
43670;SDS011;29267;50.906;7.248;2023-02-15T04:24:07;44.97;;;18.00;;
43670;SDS011;29267;50.906;7.248;2023-02-15T04:26:51;40.22;;;17.38;;
43670;SDS011;29267;50.906;7.248;2023-02-15T04:29:21;41.70;;;17.60;;
43670;SDS011;29267;50.906;7.248;2023-02-15T04:31:48;41.78;;;16.45;;
43670;SDS011;29267;50.906;7.248;2023-02-15T04:34:14;51.40;;;18.35;;
43670;SDS011;29267;50.906;7.248;2023-02-15T04:36:40;40.63;;;17.00;;
43670;SDS011;29267;50.906;7.248;2023-02-15T04:39:06;48.22;;;17.90;;
43670;SDS011;29267;50.906;7.248;2023-02-15T04:41:32;41.25;;;17.50;;
43670;SDS011;29267;50.906;7.248;2023-02-15T04:43:58;36.60;;;15.95;;
43670;SDS011;29267;50.906;7.248;2023-02-15T04:46:25;44.40;;;17.88;;
43670;SDS011;29267;50.906;7.248;2023-02-15T04:48:51;35.50;;;16.65;;
43670;SDS011;29267;50.906;7.248;2023-02-15T04:51:17;48.75;;;18.55;;
43670;SDS011;29267;50.906;7.248;2023-02-15T04:53:43;44.17;;;18.88;;
43670;SDS011;29267;50.906;7.248;2023-02-15T04:56:08;38.55;;;16.48;;
43670;SDS011;29267;50.906;7.248;2023-02-15T04:58:34;38.33;;;15.82;;
43670;SDS011;29267;50.906;7.248;2023-02-15T05:01:00;38.05;;;16.02;;
43670;SDS011;29267;50.906;7.248;2023-02-15T05:03:26;39.43;;;16.90;;
43670;SDS011;29267;50.906;7.248;2023-02-15T05:05:51;38.58;;;17.02;;
43670;SDS011;29267;50.906;7.248;2023-02-15T05:08:17;39.53;;;16.73;;
43670;SDS011;29267;50.906;7.248;2023-02-15T05:10:43;39.50;;;16.38;;
43670;SDS011;29267;50.906;7.248;2023-02-15T05:13:08;39.67;;;15.43;;
43670;SDS011;29267;50.906;7.248;2023-02-15T05:15:34;33.15;;;13.90;;
43670;SDS011;29267;50.906;7.248;2023-02-15T05:17:59;38.95;;;16.20;;
43670;SDS011;29267;50.906;7.248;2023-02-15T05:20:26;38.80;;;15.60;;
43670;SDS011;29267;50.906;7.248;2023-02-15T05:22:55;38.17;;;15.13;;
43670;SDS011;29267;50.906;7.248;2023-02-15T05:25:20;42.63;;;18.02;;
43670;SDS011;29267;50.906;7.248;2023-02-15T05:28:04;43.95;;;17.15;;
43670;SDS011;29267;50.906;7.248;2023-02-15T05:30:48;42.58;;;17.23;;
43670;SDS011;29267;50.906;7.248;2023-02-15T05:33:16;47.88;;;17.88;;
43670;SDS011;29267;50.906;7.248;2023-02-15T05:35:42;40.85;;;15.35;;
43670;SDS011;29267;50.906;7.248;2023-02-15T05:38:08;35.88;;;15.88;;
43670;SDS011;29267;50.906;7.248;2023-02-15T05:40:34;41.58;;;16.55;;
43670;SDS011;29267;50.906;7.248;2023-02-15T05:42:59;38.40;;;17.38;;
43670;SDS011;29267;50.906;7.248;2023-02-15T05:45:25;35.33;;;15.95;;
43670;SDS011;29267;50.906;7.248;2023-02-15T05:47:51;40.17;;;16.95;;
43670;SDS011;29267;50.906;7.248;2023-02-15T05:50:17;43.03;;;17.73;;
43670;SDS011;29267;50.906;7.248;2023-02-15T05:52:42;42.20;;;15.52;;
43670;SDS011;29267;50.906;7.248;2023-02-15T05:55:08;36.22;;;15.82;;
43670;SDS011;29267;50.906;7.248;2023-02-15T05:57:34;41.13;;;16.47;;
43670;SDS011;29267;50.906;7.248;2023-02-15T06:00:00;34.93;;;15.10;;
43670;SDS011;29267;50.906;7.248;2023-02-15T06:02:29;40.57;;;15.93;;
43670;SDS011;29267;50.906;7.248;2023-02-15T06:04:59;37.22;;;15.90;;
43670;SDS011;29267;50.906;7.248;2023-02-15T06:07:24;34.38;;;15.80;;
43670;SDS011;29267;50.906;7.248;2023-02-15T06:09:50;41.00;;;16.13;;
43670;SDS011;29267;50.906;7.248;2023-02-15T06:12:15;36.47;;;16.17;;
43670;SDS011;29267;50.906;7.248;2023-02-15T06:14:41;37.75;;;14.70;;
43670;SDS011;29267;50.906;7.248;2023-02-15T06:17:07;37.25;;;16.83;;
43670;SDS011;29267;50.906;7.248;2023-02-15T06:19:32;39.40;;;16.30;;
43670;SDS011;29267;50.906;7.248;2023-02-15T06:21:58;40.90;;;16.13;;
43670;SDS011;29267;50.906;7.248;2023-02-15T06:24:23;39.42;;;16.98;;
43670;SDS011;29267;50.906;7.248;2023-02-15T06:26:49;43.00;;;15.77;;
43670;SDS011;29267;50.906;7.248;2023-02-15T06:29:15;40.57;;;15.67;;
43670;SDS011;29267;50.906;7.248;2023-02-15T06:31:40;33.53;;;15.32;;
43670;SDS011;29267;50.906;7.248;2023-02-15T06:34:06;41.33;;;17.27;;
43670;SDS011;29267;50.906;7.248;2023-02-15T06:36:31;37.80;;;16.27;;
43670;SDS011;29267;50.906;7.248;2023-02-15T06:38:57;39.40;;;16.13;;
43670;SDS011;29267;50.906;7.248;2023-02-15T06:41:23;37.17;;;14.90;;
43670;SDS011;29267;50.906;7.248;2023-02-15T06:43:49;38.20;;;15.40;;
43670;SDS011;29267;50.906;7.248;2023-02-15T06:46:15;43.83;;;16.13;;
43670;SDS011;29267;50.906;7.248;2023-02-15T06:48:40;35.13;;;15.95;;
43670;SDS011;29267;50.906;7.248;2023-02-15T06:51:06;37.17;;;15.50;;
43670;SDS011;29267;50.906;7.248;2023-02-15T06:53:31;38.53;;;16.27;;
43670;SDS011;29267;50.906;7.248;2023-02-15T06:56:01;36.08;;;14.73;;
43670;SDS011;29267;50.906;7.248;2023-02-15T07:00:57;35.73;;;14.07;;
43670;SDS011;29267;50.906;7.248;2023-02-15T07:03:22;37.35;;;14.48;;
43670;SDS011;29267;50.906;7.248;2023-02-15T07:05:48;38.17;;;15.77;;
43670;SDS011;29267;50.906;7.248;2023-02-15T07:08:14;40.00;;;14.90;;
43670;SDS011;29267;50.906;7.248;2023-02-15T07:10:43;32.85;;;14.95;;
43670;SDS011;29267;50.906;7.248;2023-02-15T07:13:09;35.47;;;15.40;;
43670;SDS011;29267;50.906;7.248;2023-02-15T07:15:34;36.95;;;14.55;;
43670;SDS011;29267;50.906;7.248;2023-02-15T07:18:00;31.00;;;14.40;;
43670;SDS011;29267;50.906;7.248;2023-02-15T07:20:25;32.05;;;14.13;;
43670;SDS011;29267;50.906;7.248;2023-02-15T07:22:51;28.90;;;12.90;;
43670;SDS011;29267;50.906;7.248;2023-02-15T07:25:17;34.53;;;15.60;;
43670;SDS011;29267;50.906;7.248;2023-02-15T07:27:43;30.80;;;13.52;;
43670;SDS011;29267;50.906;7.248;2023-02-15T07:30:10;32.20;;;13.88;;
43670;SDS011;29267;50.906;7.248;2023-02-15T07:32:37;30.92;;;12.85;;
43670;SDS011;29267;50.906;7.248;2023-02-15T07:35:23;38.55;;;14.55;;
43670;SDS011;29267;50.906;7.248;2023-02-15T07:37:49;33.72;;;12.93;;
43670;SDS011;29267;50.906;7.248;2023-02-15T07:40:15;29.15;;;12.80;;
43670;SDS011;29267;50.906;7.248;2023-02-15T07:42:40;32.17;;;13.00;;
43670;SDS011;29267;50.906;7.248;2023-02-15T07:45:06;31.27;;;12.13;;
43670;SDS011;29267;50.906;7.248;2023-02-15T07:47:32;32.90;;;13.18;;
43670;SDS011;29267;50.906;7.248;2023-02-15T07:49:57;31.52;;;13.45;;
43670;SDS011;29267;50.906;7.248;2023-02-15T07:52:23;28.30;;;12.35;;
43670;SDS011;29267;50.906;7.248;2023-02-15T07:54:50;29.50;;;12.90;;
43670;SDS011;29267;50.906;7.248;2023-02-15T07:57:15;27.90;;;12.63;;
43670;SDS011;29267;50.906;7.248;2023-02-15T07:59:41;21.83;;;11.13;;
43670;SDS011;29267;50.906;7.248;2023-02-15T08:02:10;28.27;;;12.65;;
43670;SDS011;29267;50.906;7.248;2023-02-15T08:04:35;32.85;;;12.82;;
43670;SDS011;29267;50.906;7.248;2023-02-15T08:07:01;21.63;;;11.27;;
43670;SDS011;29267;50.906;7.248;2023-02-15T08:09:26;25.67;;;11.65;;
43670;SDS011;29267;50.906;7.248;2023-02-15T08:11:52;27.77;;;11.63;;
43670;SDS011;29267;50.906;7.248;2023-02-15T08:14:18;25.08;;;10.57;;
43670;SDS011;29267;50.906;7.248;2023-02-15T08:16:49;24.40;;;10.55;;
43670;SDS011;29267;50.906;7.248;2023-02-15T08:19:26;24.13;;;10.93;;
43670;SDS011;29267;50.906;7.248;2023-02-15T08:21:54;25.60;;;10.32;;
43670;SDS011;29267;50.906;7.248;2023-02-15T08:24:25;20.73;;;10.40;;
43670;SDS011;29267;50.906;7.248;2023-02-15T08:26:52;23.67;;;11.13;;
43670;SDS011;29267;50.906;7.248;2023-02-15T08:29:19;25.00;;;9.85;;
43670;SDS011;29267;50.906;7.248;2023-02-15T08:31:47;18.92;;;10.20;;
43670;SDS011;29267;50.906;7.248;2023-02-15T08:34:15;27.90;;;11.20;;
43670;SDS011;29267;50.906;7.248;2023-02-15T08:36:42;21.35;;;10.25;;
43670;SDS011;29267;50.906;7.248;2023-02-15T08:39:10;23.02;;;10.45;;
43670;SDS011;29267;50.906;7.248;2023-02-15T08:41:36;21.95;;;10.40;;
43670;SDS011;29267;50.906;7.248;2023-02-15T08:44:04;18.15;;;9.43;;
43670;SDS011;29267;50.906;7.248;2023-02-15T08:46:32;23.77;;;9.98;;
43670;SDS011;29267;50.906;7.248;2023-02-15T08:49:00;22.90;;;11.10;;
43670;SDS011;29267;50.906;7.248;2023-02-15T08:51:27;24.17;;;10.18;;
43670;SDS011;29267;50.906;7.248;2023-02-15T08:54:02;26.52;;;10.38;;
43670;SDS011;29267;50.906;7.248;2023-02-15T08:56:31;18.50;;;9.07;;
43670;SDS011;29267;50.906;7.248;2023-02-15T08:58:59;20.13;;;10.13;;
43670;SDS011;29267;50.906;7.248;2023-02-15T09:01:26;20.50;;;9.10;;
43670;SDS011;29267;50.906;7.248;2023-02-15T09:04:00;22.05;;;9.65;;
43670;SDS011;29267;50.906;7.248;2023-02-15T09:06:29;18.42;;;9.57;;
43670;SDS011;29267;50.906;7.248;2023-02-15T09:08:55;24.63;;;9.68;;
43670;SDS011;29267;50.906;7.248;2023-02-15T09:11:22;22.73;;;10.10;;
43670;SDS011;29267;50.906;7.248;2023-02-15T09:13:51;19.77;;;9.68;;
43670;SDS011;29267;50.906;7.248;2023-02-15T09:16:19;19.70;;;9.57;;
43670;SDS011;29267;50.906;7.248;2023-02-15T09:18:45;20.45;;;9.32;;
43670;SDS011;29267;50.906;7.248;2023-02-15T09:21:15;20.92;;;9.95;;
43670;SDS011;29267;50.906;7.248;2023-02-15T09:23:44;20.90;;;10.20;;
43670;SDS011;29267;50.906;7.248;2023-02-15T09:26:12;20.00;;;9.68;;
43670;SDS011;29267;50.906;7.248;2023-02-15T09:28:40;20.10;;;10.57;;
43670;SDS011;29267;50.906;7.248;2023-02-15T09:31:13;21.45;;;9.75;;
43670;SDS011;29267;50.906;7.248;2023-02-15T09:33:41;17.83;;;8.55;;
43670;SDS011;29267;50.906;7.248;2023-02-15T09:36:15;17.40;;;9.18;;
43670;SDS011;29267;50.906;7.248;2023-02-15T09:38:46;17.45;;;8.43;;
43670;SDS011;29267;50.906;7.248;2023-02-15T09:41:27;16.48;;;8.25;;
43670;SDS011;29267;50.906;7.248;2023-02-15T09:44:22;19.80;;;9.20;;
43670;SDS011;29267;50.906;7.248;2023-02-15T09:49:49;15.20;;;8.27;;
43670;SDS011;29267;50.906;7.248;2023-02-15T09:52:28;19.35;;;8.85;;
43670;SDS011;29267;50.906;7.248;2023-02-15T10:12:10;14.25;;;7.97;;
43670;SDS011;29267;50.906;7.248;2023-02-15T10:28:17;17.52;;;7.93;;
43670;SDS011;29267;50.906;7.248;2023-02-15T10:30:49;16.55;;;9.35;;
43670;SDS011;29267;50.906;7.248;2023-02-15T10:33:21;14.93;;;8.10;;
43670;SDS011;29267;50.906;7.248;2023-02-15T10:38:42;14.45;;;7.90;;
43670;SDS011;29267;50.906;7.248;2023-02-15T10:41:25;16.10;;;8.82;;
43670;SDS011;29267;50.906;7.248;2023-02-15T10:47:09;17.02;;;8.38;;
43670;SDS011;29267;50.906;7.248;2023-02-15T10:55:02;14.75;;;8.30;;
43670;SDS011;29267;50.906;7.248;2023-02-15T11:00:05;13.88;;;7.72;;
43670;SDS011;29267;50.906;7.248;2023-02-15T11:07:44;16.90;;;8.35;;
43670;SDS011;29267;50.906;7.248;2023-02-15T11:12:44;15.93;;;7.88;;
43670;SDS011;29267;50.906;7.248;2023-02-15T11:15:15;17.95;;;8.57;;
43670;SDS011;29267;50.906;7.248;2023-02-15T11:17:58;18.83;;;9.30;;
43670;SDS011;29267;50.906;7.248;2023-02-15T11:20:30;15.02;;;7.63;;
43670;SDS011;29267;50.906;7.248;2023-02-15T11:23:06;18.63;;;8.30;;
43670;SDS011;29267;50.906;7.248;2023-02-15T11:25:40;15.38;;;8.50;;
43670;SDS011;29267;50.906;7.248;2023-02-15T11:28:10;15.63;;;8.32;;
43670;SDS011;29267;50.906;7.248;2023-02-15T11:30:58;15.55;;;8.30;;
43670;SDS011;29267;50.906;7.248;2023-02-15T11:33:29;16.63;;;8.90;;
43670;SDS011;29267;50.906;7.248;2023-02-15T11:36:11;18.15;;;8.32;;
43670;SDS011;29267;50.906;7.248;2023-02-15T11:38:43;29.90;;;15.73;;
43670;SDS011;29267;50.906;7.248;2023-02-15T11:41:11;59.92;;;33.30;;
43670;SDS011;29267;50.906;7.248;2023-02-15T11:43:43;27.20;;;15.02;;
43670;SDS011;29267;50.906;7.248;2023-02-15T11:46:10;32.90;;;18.25;;
43670;SDS011;29267;50.906;7.248;2023-02-15T11:48:37;22.08;;;12.52;;
43670;SDS011;29267;50.906;7.248;2023-02-15T11:51:03;26.95;;;16.95;;
43670;SDS011;29267;50.906;7.248;2023-02-15T11:53:31;17.20;;;9.45;;
43670;SDS011;29267;50.906;7.248;2023-02-15T11:55:58;16.58;;;9.00;;
43670;SDS011;29267;50.906;7.248;2023-02-15T12:06:11;16.80;;;9.23;;
43670;SDS011;29267;50.906;7.248;2023-02-15T12:09:03;16.77;;;8.95;;
43670;SDS011;29267;50.906;7.248;2023-02-15T12:11:50;17.95;;;9.40;;
43670;SDS011;29267;50.906;7.248;2023-02-15T12:14:15;18.35;;;9.38;;
43670;SDS011;29267;50.906;7.248;2023-02-15T12:16:45;17.98;;;9.40;;
43670;SDS011;29267;50.906;7.248;2023-02-15T12:19:33;22.85;;;9.48;;
43670;SDS011;29267;50.906;7.248;2023-02-15T12:22:05;21.23;;;8.93;;
43670;SDS011;29267;50.906;7.248;2023-02-15T12:24:45;21.83;;;10.73;;
43670;SDS011;29267;50.906;7.248;2023-02-15T12:27:17;21.08;;;9.23;;
43670;SDS011;29267;50.906;7.248;2023-02-15T12:30:00;20.70;;;10.05;;
43670;SDS011;29267;50.906;7.248;2023-02-15T12:32:36;16.92;;;9.65;;
43670;SDS011;29267;50.906;7.248;2023-02-15T12:35:37;27.10;;;15.65;;
43670;SDS011;29267;50.906;7.248;2023-02-15T12:40:31;17.67;;;9.63;;
43670;SDS011;29267;50.906;7.248;2023-02-15T12:42:58;19.70;;;10.32;;
43670;SDS011;29267;50.906;7.248;2023-02-15T12:50:43;15.77;;;7.97;;
43670;SDS011;29267;50.906;7.248;2023-02-15T12:53:17;18.02;;;8.48;;
43670;SDS011;29267;50.906;7.248;2023-02-15T12:55:57;17.23;;;8.73;;
43670;SDS011;29267;50.906;7.248;2023-02-15T12:58:30;21.45;;;9.88;;
43670;SDS011;29267;50.906;7.248;2023-02-15T13:03:28;18.15;;;9.95;;
43670;SDS011;29267;50.906;7.248;2023-02-15T13:05:55;18.48;;;9.82;;
43670;SDS011;29267;50.906;7.248;2023-02-15T13:08:27;15.40;;;9.05;;
43670;SDS011;29267;50.906;7.248;2023-02-15T13:11:11;14.63;;;8.15;;
43670;SDS011;29267;50.906;7.248;2023-02-15T13:14:42;19.70;;;9.98;;
43670;SDS011;29267;50.906;7.248;2023-02-15T13:16:56;28.52;;;9.50;;
43670;SDS011;29267;50.906;7.248;2023-02-15T13:19:33;21.60;;;9.77;;
43670;SDS011;29267;50.906;7.248;2023-02-15T13:22:02;17.92;;;9.32;;
43670;SDS011;29267;50.906;7.248;2023-02-15T13:24:34;18.13;;;8.57;;
43670;SDS011;29267;50.906;7.248;2023-02-15T13:27:04;15.45;;;8.32;;
43670;SDS011;29267;50.906;7.248;2023-02-15T13:29:34;16.65;;;9.13;;
43670;SDS011;29267;50.906;7.248;2023-02-15T13:32:17;18.70;;;9.57;;
43670;SDS011;29267;50.906;7.248;2023-02-15T13:34:54;15.60;;;9.38;;
43670;SDS011;29267;50.906;7.248;2023-02-15T13:40:02;19.23;;;9.55;;
43670;SDS011;29267;50.906;7.248;2023-02-15T13:48:12;19.27;;;8.95;;
43670;SDS011;29267;50.906;7.248;2023-02-15T13:56:53;16.90;;;9.80;;
43670;SDS011;29267;50.906;7.248;2023-02-15T14:24:00;20.88;;;9.80;;
43670;SDS011;29267;50.906;7.248;2023-02-15T14:27:18;20.50;;;10.98;;
43670;SDS011;29267;50.906;7.248;2023-02-15T14:29:57;20.07;;;9.37;;
43670;SDS011;29267;50.906;7.248;2023-02-15T14:32:45;22.50;;;10.93;;
43670;SDS011;29267;50.906;7.248;2023-02-15T14:35:26;20.98;;;11.32;;
43670;SDS011;29267;50.906;7.248;2023-02-15T14:48:52;22.13;;;10.30;;
43670;SDS011;29267;50.906;7.248;2023-02-15T14:54:04;18.38;;;10.13;;
43670;SDS011;29267;50.906;7.248;2023-02-15T14:56:31;20.52;;;10.95;;
43670;SDS011;29267;50.906;7.248;2023-02-15T14:59:08;20.25;;;10.77;;
43670;SDS011;29267;50.906;7.248;2023-02-15T15:01:41;18.88;;;9.95;;
43670;SDS011;29267;50.906;7.248;2023-02-15T15:04:22;16.80;;;9.55;;
43670;SDS011;29267;50.906;7.248;2023-02-15T15:07:25;19.67;;;9.43;;
43670;SDS011;29267;50.906;7.248;2023-02-15T15:09:46;20.17;;;9.98;;
43670;SDS011;29267;50.906;7.248;2023-02-15T15:14:49;18.55;;;9.73;;
43670;SDS011;29267;50.906;7.248;2023-02-15T15:22:29;17.88;;;9.20;;
43670;SDS011;29267;50.906;7.248;2023-02-15T15:24:57;16.50;;;9.70;;
43670;SDS011;29267;50.906;7.248;2023-02-15T15:38:40;14.95;;;9.43;;
43670;SDS011;29267;50.906;7.248;2023-02-15T15:49:37;16.67;;;9.75;;
43670;SDS011;29267;50.906;7.248;2023-02-15T15:52:17;15.30;;;9.00;;
43670;SDS011;29267;50.906;7.248;2023-02-15T15:54:46;26.67;;;15.77;;
43670;SDS011;29267;50.906;7.248;2023-02-15T15:59:54;19.77;;;10.73;;
43670;SDS011;29267;50.906;7.248;2023-02-15T16:02:21;18.13;;;9.57;;
43670;SDS011;29267;50.906;7.248;2023-02-15T16:04:48;19.95;;;9.85;;
43670;SDS011;29267;50.906;7.248;2023-02-15T16:09:56;17.52;;;9.95;;
43670;SDS011;29267;50.906;7.248;2023-02-15T16:12:27;21.63;;;10.80;;
43670;SDS011;29267;50.906;7.248;2023-02-15T16:14:54;21.23;;;10.88;;
43670;SDS011;29267;50.906;7.248;2023-02-15T16:17:24;19.60;;;10.23;;
43670;SDS011;29267;50.906;7.248;2023-02-15T16:19:56;22.48;;;10.70;;
43670;SDS011;29267;50.906;7.248;2023-02-15T16:22:27;17.88;;;9.75;;
43670;SDS011;29267;50.906;7.248;2023-02-15T16:27:42;19.27;;;9.55;;
43670;SDS011;29267;50.906;7.248;2023-02-15T16:30:22;19.35;;;10.02;;
43670;SDS011;29267;50.906;7.248;2023-02-15T16:35:52;17.77;;;9.90;;
43670;SDS011;29267;50.906;7.248;2023-02-15T16:41:24;22.42;;;9.73;;
43670;SDS011;29267;50.906;7.248;2023-02-15T16:43:52;19.83;;;10.27;;
43670;SDS011;29267;50.906;7.248;2023-02-15T16:46:25;18.48;;;9.02;;
43670;SDS011;29267;50.906;7.248;2023-02-15T16:48:52;22.40;;;11.98;;
43670;SDS011;29267;50.906;7.248;2023-02-15T16:51:22;19.40;;;10.50;;
43670;SDS011;29267;50.906;7.248;2023-02-15T16:53:50;18.13;;;10.45;;
43670;SDS011;29267;50.906;7.248;2023-02-15T16:56:22;17.33;;;9.02;;
43670;SDS011;29267;50.906;7.248;2023-02-15T16:58:53;18.08;;;9.35;;
43670;SDS011;29267;50.906;7.248;2023-02-15T17:01:20;21.42;;;10.73;;
43670;SDS011;29267;50.906;7.248;2023-02-15T17:03:49;21.65;;;10.05;;
43670;SDS011;29267;50.906;7.248;2023-02-15T17:16:32;19.98;;;10.75;;
43670;SDS011;29267;50.906;7.248;2023-02-15T17:19:02;28.63;;;14.10;;
43670;SDS011;29267;50.906;7.248;2023-02-15T17:21:40;19.13;;;10.30;;
43670;SDS011;29267;50.906;7.248;2023-02-15T17:24:15;30.20;;;15.60;;
43670;SDS011;29267;50.906;7.248;2023-02-15T17:26:48;28.48;;;13.30;;
43670;SDS011;29267;50.906;7.248;2023-02-15T17:31:55;25.42;;;11.68;;
43670;SDS011;29267;50.906;7.248;2023-02-15T17:37:11;20.15;;;10.30;;
43670;SDS011;29267;50.906;7.248;2023-02-15T17:39:51;22.40;;;10.10;;
43670;SDS011;29267;50.906;7.248;2023-02-15T17:42:17;60.90;;;28.88;;
43670;SDS011;29267;50.906;7.248;2023-02-15T17:44:42;60.42;;;28.30;;
43670;SDS011;29267;50.906;7.248;2023-02-15T17:47:13;30.75;;;14.00;;
43670;SDS011;29267;50.906;7.248;2023-02-15T17:49:41;34.53;;;17.92;;
43670;SDS011;29267;50.906;7.248;2023-02-15T17:52:11;67.15;;;35.22;;
43670;SDS011;29267;50.906;7.248;2023-02-15T17:54:38;28.85;;;15.05;;
43670;SDS011;29267;50.906;7.248;2023-02-15T17:57:23;21.17;;;11.90;;
43670;SDS011;29267;50.906;7.248;2023-02-15T17:59:50;27.05;;;13.20;;
43670;SDS011;29267;50.906;7.248;2023-02-15T18:02:34;24.00;;;14.05;;
43670;SDS011;29267;50.906;7.248;2023-02-15T18:05:18;25.15;;;12.18;;
43670;SDS011;29267;50.906;7.248;2023-02-15T18:08:03;29.08;;;11.43;;
43670;SDS011;29267;50.906;7.248;2023-02-15T18:10:52;22.48;;;10.40;;
43670;SDS011;29267;50.906;7.248;2023-02-15T18:13:36;22.55;;;10.13;;
43670;SDS011;29267;50.906;7.248;2023-02-15T18:16:01;23.23;;;10.18;;
43670;SDS011;29267;50.906;7.248;2023-02-15T18:18:27;22.20;;;11.60;;